createdAt,value
2023-05-13T00:03:41.019Z,3.55
2023-05-13T00:08:43.442Z,3.50
2023-05-13T00:13:46.275Z,3.70
2023-05-13T00:18:48.462Z,3.85
2023-05-13T00:23:51.117Z,3.55
2023-05-13T00:28:53.733Z,3.95
2023-05-13T00:33:56.438Z,3.58
2023-05-13T00:38:59.165Z,3.72
2023-05-13T00:44:01.858Z,3.70
2023-05-13T00:49:05.792Z,3.55
2023-05-13T00:54:08.375Z,3.85
2023-05-13T00:59:11.001Z,4.20
2023-05-13T01:04:45.097Z,3.38
2023-05-13T01:09:55.512Z,3.95
2023-05-13T01:15:15.348Z,3.57
2023-05-13T01:20:23.004Z,3.95
2023-05-13T01:25:26.259Z,4.05
2023-05-13T01:30:28.995Z,4.10
2023-05-13T01:35:32.566Z,4.25
2023-05-13T01:40:36.397Z,4.38
2023-05-13T01:45:42.803Z,3.75
2023-05-13T01:50:46.851Z,3.60
2023-05-13T01:55:49.726Z,4.30
2023-05-13T02:00:52.534Z,4.30
2023-05-13T02:05:54.628Z,3.75
2023-05-13T02:10:58.164Z,3.78
2023-05-13T02:16:01.104Z,3.30
2023-05-13T02:21:04.073Z,3.00
2023-05-13T02:26:06.721Z,3.30
2023-05-13T02:31:09.444Z,3.70
2023-05-13T02:36:12.342Z,2.85
2023-05-13T02:41:15.222Z,3.70
2023-05-13T02:46:18.106Z,3.55
2023-05-13T02:51:21.332Z,3.55
2023-05-13T02:56:24.252Z,3.50
2023-05-13T03:01:27.286Z,3.25
2023-05-13T03:06:29.647Z,3.40
2023-05-13T03:11:32.267Z,3.30
2023-05-13T03:16:34.903Z,3.60
2023-05-13T03:21:38.472Z,3.42
2023-05-13T03:26:44.803Z,3.55
2023-05-13T03:31:47.330Z,3.35
2023-05-13T03:36:49.992Z,3.58
2023-05-13T03:41:53.172Z,3.95
2023-05-13T03:46:56.003Z,4.15
2023-05-13T03:51:58.921Z,3.88
2023-05-13T03:57:01.669Z,3.83
2023-05-13T04:02:04.909Z,4.10
2023-05-13T04:07:07.660Z,3.67
2023-05-13T04:12:09.785Z,4.30
2023-05-13T04:17:12.531Z,7.47
2023-05-13T04:22:14.684Z,3.30
2023-05-13T04:27:17.352Z,3.30
2023-05-13T04:32:23.811Z,3.20
2023-05-13T04:37:30.537Z,3.45
2023-05-13T04:42:37.333Z,2.60
2023-05-13T04:47:40.449Z,2.80
2023-05-13T04:52:43.353Z,2.30
2023-05-13T04:57:46.417Z,2.10
2023-05-13T05:02:49.502Z,2.15
2023-05-13T05:07:52.188Z,1.80
2023-05-13T05:12:56.095Z,1.67
2023-05-13T05:18:00.190Z,1.60
2023-05-13T05:23:03.815Z,1.67
2023-05-13T05:28:08.006Z,1.40
2023-05-13T05:33:15.130Z,1.45
2023-05-13T05:38:18.926Z,1.63
2023-05-13T05:43:39.848Z,2.28
2023-05-13T05:48:44.069Z,1.92
2023-05-13T05:53:47.467Z,1.83
2023-05-13T05:58:52.098Z,1.38
2023-05-13T06:03:55.497Z,1.20
2023-05-13T06:08:58.824Z,1.40
2023-05-13T06:14:01.563Z,1.67
2023-05-13T06:19:04.318Z,1.50
2023-05-13T06:24:06.910Z,1.50
2023-05-13T06:29:09.880Z,1.35
2023-05-13T06:34:16.710Z,1.40
2023-05-13T06:39:20.463Z,1.20
2023-05-13T06:44:23.326Z,2.40
2023-05-13T06:49:30.109Z,2.40
2023-05-13T06:54:32.780Z,1.90
2023-05-13T06:59:36.269Z,1.70
2023-05-13T07:04:38.776Z,1.90
2023-05-13T07:09:40.824Z,1.90
2023-05-13T07:14:45.534Z,1.90
2023-05-13T07:19:48.091Z,1.90
2023-05-13T07:24:50.795Z,2.35
2023-05-13T07:29:53.394Z,1.65
2023-05-13T07:34:55.975Z,2.58
2023-05-13T07:39:58.709Z,2.65
2023-05-13T07:45:01.478Z,2.88
2023-05-13T07:50:04.310Z,2.78
2023-05-13T07:55:07.560Z,1.70
2023-05-13T08:00:10.340Z,2.42
2023-05-13T08:05:15.800Z,2.35
2023-05-13T08:10:18.529Z,1.52
2023-05-13T08:15:21.437Z,1.45
2023-05-13T08:20:30.103Z,1.50
2023-05-13T08:25:32.517Z,1.85
2023-05-13T08:30:35.289Z,2.47
2023-05-13T08:35:37.817Z,4.25
2023-05-13T08:40:40.678Z,7.30
2023-05-13T08:45:47.633Z,1.92
2023-05-13T08:50:50.913Z,1.65
2023-05-13T08:55:54.992Z,2.50
2023-05-13T09:00:57.270Z,3.28
2023-05-13T09:06:03.704Z,1.50
2023-05-13T09:11:06.461Z,2.80
2023-05-13T09:16:09.095Z,1.52
2023-05-13T09:21:26.259Z,2.83
2023-05-13T09:26:31.578Z,3.63
2023-05-13T09:31:34.859Z,2.78
2023-05-13T09:36:37.140Z,1.83
2023-05-13T09:41:39.895Z,2.58
2023-05-13T09:46:43.840Z,1.50
2023-05-13T09:51:46.854Z,1.75
2023-05-13T09:56:49.610Z,1.60
2023-05-13T10:01:54.009Z,2.10
2023-05-13T10:06:58.153Z,1.30
2023-05-13T10:12:03.990Z,2.40
2023-05-13T10:17:07.458Z,1.88
2023-05-13T10:22:11.150Z,1.75
2023-05-13T10:27:15.003Z,2.05
2023-05-13T10:32:17.647Z,2.08
2023-05-13T10:37:31.812Z,1.40
2023-05-13T10:42:55.944Z,1.70
2023-05-13T10:48:07.535Z,1.85
2023-05-13T10:53:20.358Z,1.80
2023-05-13T10:58:28.987Z,2.13
2023-05-13T11:03:31.730Z,1.80
2023-05-13T11:08:42.039Z,1.90
2023-05-13T11:13:44.723Z,1.65
2023-05-13T11:18:47.906Z,1.45
2023-05-13T11:23:58.237Z,1.80
2023-05-13T11:34:06.975Z,1.52
2023-05-13T11:39:12.632Z,1.60
2023-05-13T11:44:17.560Z,1.58
2023-05-13T11:49:35.562Z,1.58
2023-05-13T11:54:58.949Z,1.88
2023-05-13T12:00:07.283Z,1.70
2023-05-13T12:05:11.777Z,1.60
2023-05-13T12:10:14.868Z,1.90
2023-05-13T12:15:19.122Z,2.00
2023-05-13T12:20:23.530Z,1.75
2023-05-13T12:25:47.031Z,1.63
2023-05-13T12:30:59.201Z,1.70
2023-05-13T12:36:25.878Z,1.83
2023-05-13T12:41:41.982Z,1.50
2023-05-13T12:46:54.810Z,2.55
2023-05-13T12:51:57.590Z,2.30
2023-05-13T12:57:00.279Z,2.42
2023-05-13T13:02:02.809Z,1.80
2023-05-13T13:07:09.002Z,1.92
2023-05-13T13:12:11.486Z,1.85
2023-05-13T13:17:13.560Z,2.10
2023-05-13T13:22:16.237Z,1.60
2023-05-13T13:27:19.243Z,2.65
2023-05-13T13:32:22.052Z,1.63
2023-05-13T13:37:24.796Z,1.90
2023-05-13T13:42:40.119Z,1.90
2023-05-13T13:47:45.888Z,2.20
2023-05-13T13:52:48.112Z,1.90
2023-05-13T13:57:51.194Z,2.17
2023-05-13T14:02:53.998Z,2.08
2023-05-13T14:07:56.757Z,1.75
2023-05-13T14:12:58.845Z,1.80
2023-05-13T14:18:01.500Z,2.35
2023-05-13T14:23:05.501Z,2.03
2023-05-13T14:28:08.365Z,1.90
2023-05-13T14:33:11.138Z,1.98
2023-05-13T14:38:13.824Z,1.80
2023-05-13T14:43:15.948Z,1.90
2023-05-13T14:48:19.578Z,1.80
2023-05-13T14:53:22.252Z,2.17
2023-05-13T14:58:24.971Z,1.80
2023-05-13T15:03:27.530Z,1.90
2023-05-13T15:08:30.201Z,2.28
2023-05-13T15:13:37.068Z,3.10
2023-05-13T15:18:39.638Z,2.00
2023-05-13T15:23:42.212Z,2.83
2023-05-13T15:28:44.816Z,2.10
2023-05-13T15:33:47.383Z,2.55
2023-05-13T15:38:50.466Z,2.97
2023-05-13T15:43:53.019Z,2.15
2023-05-13T15:48:55.724Z,2.10
2023-05-13T15:53:58.383Z,1.80
2023-05-13T15:59:00.557Z,2.10
2023-05-13T16:04:03.314Z,2.03
2023-05-13T16:09:05.967Z,3.35
2023-05-13T16:14:08.894Z,6.70
2023-05-13T16:19:11.593Z,12.35
2023-05-13T16:24:14.160Z,2.72
2023-05-13T16:29:16.855Z,2.20
2023-05-13T16:34:19.394Z,2.40
2023-05-13T16:39:22.108Z,1.80
2023-05-13T16:44:25.302Z,2.80
2023-05-13T16:49:27.954Z,2.25
2023-05-13T16:54:30.594Z,2.80
2023-05-13T16:59:36.544Z,2.20
2023-05-13T17:04:39.145Z,2.10
2023-05-13T17:09:41.304Z,4.38
2023-05-13T17:14:44.210Z,2.47
2023-05-13T17:19:46.723Z,3.97
2023-05-13T17:24:49.278Z,2.03
2023-05-13T17:29:52.025Z,2.17
2023-05-13T17:34:54.477Z,3.47
2023-05-13T17:40:00.872Z,5.30
2023-05-13T17:45:04.029Z,3.65
2023-05-13T17:50:06.658Z,2.28
2023-05-13T17:55:09.536Z,5.88
2023-05-13T18:00:14.987Z,6.55
2023-05-13T18:05:17.806Z,6.00
2023-05-13T18:10:21.098Z,6.07
2023-05-13T18:15:23.962Z,6.38
2023-05-13T18:20:26.712Z,4.47
2023-05-13T18:25:31.477Z,4.80
2023-05-13T18:30:34.018Z,4.90
2023-05-13T18:35:38.571Z,7.18
2023-05-13T18:40:42.247Z,7.90
2023-05-13T18:45:44.839Z,4.97
2023-05-13T18:50:47.486Z,4.82
2023-05-13T18:55:50.253Z,6.00
2023-05-13T19:00:53.224Z,6.20
2023-05-13T19:05:56.142Z,5.45
2023-05-13T19:10:58.892Z,4.72
2023-05-13T19:16:01.581Z,5.10
2023-05-13T19:21:04.431Z,4.75
2023-05-13T19:26:07.012Z,5.32
2023-05-13T19:31:10.978Z,4.65
2023-05-13T19:36:13.772Z,3.75
2023-05-13T19:41:16.500Z,5.35
2023-05-13T19:46:19.245Z,5.72
2023-05-13T19:51:22.018Z,4.68
2023-05-13T19:56:24.864Z,5.28
2023-05-13T20:01:27.534Z,5.68
2023-05-13T20:06:30.243Z,5.28
2023-05-13T20:11:32.383Z,5.07
2023-05-13T20:16:34.984Z,5.40
2023-05-13T20:21:37.578Z,5.20
2023-05-13T20:26:40.339Z,5.60
2023-05-13T20:31:43.669Z,5.53
2023-05-13T20:36:45.950Z,5.70
2023-05-13T20:41:48.654Z,5.82
2023-05-13T20:46:51.680Z,5.53
2023-05-13T20:51:54.435Z,5.20
2023-05-13T20:56:57.164Z,5.25
2023-05-13T21:01:59.392Z,5.75
2023-05-13T21:07:02.114Z,5.95
2023-05-13T21:12:05.183Z,6.25
2023-05-13T21:17:07.953Z,5.65
2023-05-13T21:22:10.317Z,5.25
2023-05-13T21:27:13.338Z,5.38
2023-05-13T21:32:18.719Z,5.28
2023-05-13T21:37:21.284Z,5.10
2023-05-13T21:42:23.391Z,4.85
2023-05-13T21:47:25.884Z,5.25
2023-05-13T21:52:28.424Z,4.57
2023-05-13T21:57:31.012Z,4.50
2023-05-13T22:02:33.285Z,4.45
2023-05-13T22:07:36.419Z,4.40
2023-05-13T22:12:38.932Z,4.20
2023-05-13T22:17:41.827Z,4.03
2023-05-13T22:22:44.117Z,4.38
2023-05-13T22:27:49.023Z,4.80
2023-05-13T22:32:52.399Z,5.10
2023-05-13T22:37:55.210Z,5.47
2023-05-13T22:42:57.764Z,5.38
2023-05-13T22:47:59.907Z,5.03
2023-05-13T22:53:03.112Z,4.60
2023-05-13T22:58:05.931Z,4.63
2023-05-13T23:03:08.862Z,4.80
2023-05-13T23:08:11.474Z,4.38
2023-05-13T23:13:13.970Z,4.75
2023-05-13T23:18:16.682Z,4.80
2023-05-13T23:23:19.130Z,4.82
2023-05-13T23:28:40.927Z,4.30
2023-05-13T23:33:43.138Z,3.83
2023-05-13T23:38:46.319Z,4.70
2023-05-13T23:43:48.911Z,3.80
2023-05-13T23:48:51.054Z,4.18
2023-05-13T23:53:55.633Z,4.13
2023-05-13T23:58:58.395Z,4.07
